Time;durP1;ratioP1;P1;durP2;ratioP2;P2;SDS_P1;SDS_P2;PMS_P1;PMS_P2;Temp;Humidity;BMP_temperature;BMP_pressure;BME280_temperature;BME280_humidity;BME280_pressure;Samples;Min_cycle;Max_cycle;Signal;HPM_P1;HPM_P2
2021/04/04 00:01:46;;;;;;;34.10;19.73;;;;;;;2.55;81.04;98361.00;1785241;79;21185;-71
2021/04/04 00:04:13;;;;;;;35.92;17.77;;;;;;;2.53;80.90;98359.59;1785198;80;21511;-71
2021/04/04 00:06:39;;;;;;;33.98;19.35;;;;;;;2.55;80.95;98358.84;1785233;79;21516;-71
2021/04/04 00:09:06;;;;;;;34.43;18.35;;;;;;;2.58;80.83;98355.75;1785162;80;21441;-71
2021/04/04 00:11:33;;;;;;;30.37;19.23;;;;;;;2.59;80.78;98356.05;1785219;79;21452;-71
2021/04/04 00:13:59;;;;;;;33.15;17.48;;;;;;;2.62;80.75;98360.13;1785070;80;21271;-71
2021/04/04 00:16:25;;;;;;;35.60;19.87;;;;;;;2.66;80.68;98359.48;1785185;79;21039;-71
2021/04/04 00:18:51;;;;;;;34.00;18.70;;;;;;;2.70;80.75;98359.33;1785157;80;21082;-71
2021/04/04 00:21:17;;;;;;;33.38;20.15;;;;;;;2.75;80.73;98361.36;1785130;79;21095;-71
2021/04/04 00:23:44;;;;;;;40.55;22.82;;;;;;;2.78;80.69;98359.56;1785165;80;21027;-71
2021/04/04 00:26:10;;;;;;;38.13;23.05;;;;;;;2.79;80.57;98359.86;1785128;79;21519;-71
2021/04/04 00:28:36;;;;;;;41.60;22.27;;;;;;;2.78;80.02;98363.58;1785139;80;21562;-71
2021/04/04 00:31:02;;;;;;;40.78;23.00;;;;;;;2.64;79.96;98367.41;1785098;79;21095;-71
2021/04/04 00:33:28;;;;;;;49.20;26.33;;;;;;;2.47;79.83;98368.48;1785112;80;21142;-71
2021/04/04 00:35:54;;;;;;;48.73;25.75;;;;;;;2.41;80.08;98374.21;1785168;79;21083;-71
2021/04/04 00:38:21;;;;;;;52.33;29.82;;;;;;;2.42;80.21;98374.51;1785253;80;21511;-71
2021/04/04 00:40:47;;;;;;;40.70;22.48;;;;;;;2.46;80.43;98376.21;1785059;79;21035;-71
2021/04/04 00:43:13;;;;;;;44.45;25.75;;;;;;;2.48;80.37;98371.48;1785253;80;21588;-71
2021/04/04 00:45:39;;;;;;;47.10;24.55;;;;;;;2.43;80.32;98372.13;1785106;79;21063;-71
2021/04/04 00:48:07;;;;;;;39.50;22.90;;;;;;;2.41;80.54;98370.72;1785162;80;21122;-71
2021/04/04 00:50:38;;;;;;;35.92;22.02;;;;;;;2.33;80.62;98377.16;1785051;79;21231;-71
2021/04/04 00:53:05;;;;;;;47.48;24.25;;;;;;;2.25;80.77;98374.75;1785221;80;21075;-73
2021/04/04 00:55:31;;;;;;;65.17;30.97;;;;;;;2.21;81.16;98378.36;1785094;79;21142;-73
2021/04/04 00:57:57;;;;;;;52.38;28.60;;;;;;;2.21;81.29;98376.20;1785117;80;21134;-73
2021/04/04 01:00:28;;;;;;;46.73;24.70;;;;;;;2.17;81.20;98371.82;1785116;79;21099;-73
2021/04/04 01:02:55;;;;;;;43.08;24.12;;;;;;;2.17;81.25;98379.03;1785162;80;21256;-73
2021/04/04 01:05:31;;;;;;;41.88;24.43;;;;;;;2.15;81.94;98383.26;1785016;79;21098;-73
2021/04/04 01:07:58;;;;;;;45.45;24.40;;;;;;;2.12;83.14;98382.33;1784772;80;21087;-73
2021/04/04 01:10:31;;;;;;;39.00;21.68;;;;;;;2.07;82.44;98384.86;1756061;80;40026;-73
2021/04/04 01:13:12;;;;;;;39.53;22.45;;;;;;;2.01;83.34;98385.71;1785189;80;21064;-73
2021/04/04 01:15:43;;;;;;;42.73;23.92;;;;;;;2.04;82.11;98377.77;1784761;79;21195;-74
2021/04/04 01:18:40;;;;;;;39.50;23.60;;;;;;;2.07;81.89;98386.19;1785079;80;21087;-74
2021/04/04 01:21:16;;;;;;;41.30;22.22;;;;;;;2.14;81.98;98373.61;1725791;81;21500;-74
2021/04/04 01:24:36;;;;;;;42.85;24.75;;;;;;;2.23;82.01;98377.65;1731133;82;21114;-73
2021/04/04 01:27:28;;;;;;;40.40;22.67;;;;;;;2.27;81.80;98380.69;1773178;80;21107;-73
2021/04/04 01:29:54;;;;;;;38.63;20.40;;;;;;;2.33;82.12;98381.69;1785223;79;22163;-73
2021/04/04 01:32:21;;;;;;;47.03;24.60;;;;;;;2.33;82.67;98386.52;1785132;80;21106;-73
2021/04/04 01:34:48;;;;;;;42.08;22.87;;;;;;;2.37;82.15;98385.55;1785151;79;21023;-73
2021/04/04 01:37:14;;;;;;;47.83;31.80;;;;;;;2.39;82.58;98384.28;1785106;79;21126;-73
2021/04/04 01:39:46;;;;;;;47.45;27.27;;;;;;;2.32;82.98;98381.39;1785087;79;21531;-73
2021/04/04 01:42:13;;;;;;;41.68;22.90;;;;;;;2.34;83.22;98390.01;1785118;80;21183;-73
2021/04/04 01:44:42;;;;;;;40.92;23.98;;;;;;;2.36;82.44;98375.89;1754701;79;21043;-73
2021/04/04 01:47:08;;;;;;;45.83;23.57;;;;;;;2.37;82.53;98383.69;1785330;80;24741;-73
2021/04/04 01:49:34;;;;;;;42.25;24.00;;;;;;;2.41;82.19;98383.58;1785111;80;21111;-73
2021/04/04 01:52:00;;;;;;;44.53;26.65;;;;;;;2.45;81.88;98391.45;1785198;79;21154;-74
2021/04/04 01:54:26;;;;;;;40.95;24.52;;;;;;;2.50;81.96;98395.64;1785077;80;21200;-73
2021/04/04 01:56:53;;;;;;;41.53;25.55;;;;;;;2.49;81.78;98387.84;1785026;79;21095;-74
2021/04/04 01:59:20;;;;;;;45.70;24.35;;;;;;;2.50;82.30;98390.80;1754621;80;21047;-73
2021/04/04 02:01:46;;;;;;;38.42;22.58;;;;;;;2.47;82.02;98384.53;1785109;79;21023;-73
2021/04/04 02:04:12;;;;;;;43.28;23.90;;;;;;;2.53;81.73;98392.52;1785197;80;21304;-73
2021/04/04 02:06:38;;;;;;;45.20;26.42;;;;;;;2.45;82.32;98396.80;1785098;79;21434;-73
2021/04/04 02:09:06;;;;;;;41.85;25.08;;;;;;;2.45;82.21;98391.45;1785030;80;21511;-73
2021/04/04 02:11:33;;;;;;;42.05;24.10;;;;;;;2.42;82.72;98395.09;1785265;79;21523;-73
2021/04/04 02:14:00;;;;;;;39.67;23.60;;;;;;;2.45;82.10;98390.63;1786608;79;21547;-73
2021/04/04 02:16:26;;;;;;;43.13;23.80;;;;;;;2.46;81.91;98395.76;1799827;78;21034;-73
2021/04/04 02:18:52;;;;;;;44.85;24.57;;;;;;;2.42;82.04;98394.56;1780847;80;21194;-73
2021/04/04 02:21:18;;;;;;;41.05;22.87;;;;;;;2.38;82.26;98401.37;1780726;79;21071;-73
2021/04/04 02:23:44;;;;;;;45.05;25.23;;;;;;;2.22;82.62;98397.89;1780923;80;21519;-74
2021/04/04 02:26:11;;;;;;;41.98;22.42;;;;;;;2.16;83.06;98394.25;1780761;79;21162;-73
2021/04/04 02:28:37;;;;;;;84.20;41.13;;;;;;;2.19;83.19;98411.70;1780840;80;21118;-74
2021/04/04 02:31:03;;;;;;;68.70;34.58;;;;;;;2.21;83.23;98401.61;1731994;81;21394;-73
2021/04/04 02:33:39;;;;;;;88.10;52.10;;;;;;;2.21;82.81;98402.42;1780846;80;21162;-73
2021/04/04 02:36:08;;;;;;;43.92;26.97;;;;;;;2.18;83.00;98415.42;1762073;81;21057;-73
2021/04/04 02:38:38;;;;;;;45.98;27.35;;;;;;;2.15;83.04;98416.68;1750015;82;21106;-74
2021/04/04 02:41:06;;;;;;;48.00;30.52;;;;;;;2.14;83.35;98412.38;1731929;80;21024;-73
2021/04/04 02:43:32;;;;;;;52.15;28.75;;;;;;;2.14;83.51;98415.05;1780846;80;21195;-73
2021/04/04 02:46:00;;;;;;;53.17;31.65;;;;;;;2.06;83.69;98417.98;1780787;79;21079;-73
2021/04/04 02:48:47;;;;;;;119.02;65.03;;;;;;;2.03;83.77;98416.23;1780871;80;21086;-74
2021/04/04 02:51:17;;;;;;;60.50;35.23;;;;;;;2.01;83.79;98417.78;1780741;79;21499;-73
2021/04/04 02:53:48;;;;;;;49.05;25.23;;;;;;;2.05;83.62;98417.67;1780862;80;21103;-73
2021/04/04 02:56:17;;;;;;;45.50;28.07;;;;;;;2.05;83.70;98424.84;1761894;81;21470;-73
2021/04/04 02:58:44;;;;;;;55.00;34.03;;;;;;;2.04;83.39;98423.21;1750018;81;21122;-73
2021/04/04 03:01:11;;;;;;;37.08;22.70;;;;;;;2.08;82.95;98424.44;1780807;79;21130;-73
2021/04/04 03:03:37;;;;;;;42.13;23.10;;;;;;;1.95;83.07;98426.66;1756708;80;21138;-74
2021/04/04 03:06:04;;;;;;;44.33;27.35;;;;;;;1.90;83.25;98422.48;1762233;81;21101;-73
2021/04/04 03:08:31;;;;;;;42.95;26.93;;;;;;;1.86;83.47;98426.09;1780910;80;21190;-73
2021/04/04 03:10:57;;;;;;;44.42;26.10;;;;;;;1.72;83.96;98421.86;1731937;81;21181;-73
2021/04/04 03:13:23;;;;;;;50.12;31.40;;;;;;;1.65;84.35;98421.89;1780872;80;21127;-73
2021/04/04 03:15:50;;;;;;;52.05;32.70;;;;;;;1.61;84.57;98422.51;1734525;81;21045;-73
2021/04/04 03:18:20;;;;;;;55.60;32.58;;;;;;;1.59;84.81;98423.25;1729603;83;21096;-73
2021/04/04 03:20:47;;;;;;;44.83;24.52;;;;;;;1.60;84.52;98423.03;1734023;81;21206;-73
2021/04/04 03:23:15;;;;;;;53.50;29.65;;;;;;;1.62;84.56;98423.66;1729544;82;21589;-72
2021/04/04 03:25:43;;;;;;;54.90;30.02;;;;;;;1.62;84.82;98418.31;1759860;81;21529;-73
2021/04/04 03:28:10;;;;;;;80.70;40.65;;;;;;;1.65;84.65;98419.22;1729568;82;21143;-73
2021/04/04 03:30:42;;;;;;;90.57;40.95;;;;;;;1.60;84.59;98424.88;1759819;81;21414;-73
2021/04/04 03:33:05;;;;;;;62.45;31.42;;;;;;;1.64;84.37;98426.11;1728871;83;21195;-73
2021/04/04 03:35:33;;;;;;;44.13;26.57;;;;;;;1.69;84.35;98423.09;1759682;81;21124;-73
2021/04/04 03:38:02;;;;;;;60.95;26.77;;;;;;;1.69;84.48;98427.61;1759851;81;21092;-73
2021/04/04 03:40:28;;;;;;;;;;;;;;;1.59;84.62;98429.92;1707231;83;21052;-73
2021/04/04 03:42:55;;;;;;;56.10;25.95;;;;;;;1.58;84.59;98430.44;1723695;83;20263;-73
2021/04/04 03:45:21;;;;;;;46.02;23.85;;;;;;;1.55;84.59;98430.87;1778031;79;21258;-74
2021/04/04 03:47:48;;;;;;;48.08;23.32;;;;;;;1.51;84.24;98432.83;1777948;80;21130;-73
2021/04/04 03:50:17;;;;;;;41.85;22.82;;;;;;;1.52;84.08;98431.80;1777962;79;21511;-73
2021/04/04 03:52:46;;;;;;;46.35;23.12;;;;;;;1.46;84.24;98429.98;1778126;80;21090;-73
2021/04/04 03:55:14;;;;;;;36.30;19.82;;;;;;;1.45;84.14;98436.34;1777986;79;21485;-73
2021/04/04 03:57:40;;;;;;;49.13;26.35;;;;;;;1.52;83.82;98431.28;1753906;80;22970;-73
2021/04/04 04:00:07;;;;;;;47.33;24.30;;;;;;;1.50;83.83;98434.69;1778002;79;21051;-73
2021/04/04 04:02:35;;;;;;;53.13;23.85;;;;;;;1.44;83.50;98433.36;1777999;80;21119;-73
2021/04/04 04:05:02;;;;;;;48.52;24.02;;;;;;;1.40;83.21;98434.31;1778009;79;21027;-73
2021/04/04 04:07:29;;;;;;;48.65;21.93;;;;;;;1.47;83.17;98432.96;1777992;80;21063;-74
2021/04/04 04:09:57;;;;;;;56.00;26.57;;;;;;;1.41;83.39;98434.61;1777933;79;21262;-73
2021/04/04 04:12:23;;;;;;;49.58;26.62;;;;;;;1.39;83.26;98436.69;1777905;80;21090;-74
2021/04/04 04:14:49;;;;;;;46.05;22.35;;;;;;;1.35;83.54;98440.79;1779300;79;21107;-74
2021/04/04 04:17:15;;;;;;;45.12;22.93;;;;;;;1.38;83.41;98438.53;1785149;80;21154;-74
2021/04/04 04:19:41;;;;;;;45.73;21.37;;;;;;;1.36;83.37;98444.58;1785135;79;21107;-74
2021/04/04 04:22:07;;;;;;;45.20;21.68;;;;;;;1.40;83.21;98448.48;1785241;80;21246;-74
2021/04/04 04:24:34;;;;;;;42.90;20.48;;;;;;;1.46;82.88;98443.34;1785188;80;21113;-74
2021/04/04 04:27:00;;;;;;;40.23;20.37;;;;;;;1.47;82.85;98441.80;1785107;79;21568;-74
2021/04/04 04:29:26;;;;;;;36.95;18.50;;;;;;;1.39;82.62;98442.02;1785232;80;21548;-74
2021/04/04 04:31:55;;;;;;;35.23;18.35;;;;;;;1.40;82.91;98445.00;1785117;79;21059;-74
2021/04/04 04:34:21;;;;;;;40.85;20.08;;;;;;;1.48;82.61;98449.29;1785285;80;21192;-73
2021/04/04 04:36:47;;;;;;;43.65;23.12;;;;;;;1.30;82.34;98452.63;1785072;79;21023;-74
2021/04/04 04:39:13;;;;;;;39.20;21.00;;;;;;;1.28;82.50;98448.84;1785168;80;21094;-74
2021/04/04 04:41:44;;;;;;;36.83;19.07;;;;;;;1.26;82.61;98448.20;1785098;79;21034;-74
2021/04/04 04:44:15;;;;;;;35.68;20.57;;;;;;;1.28;82.74;98452.84;1785180;80;21087;-74
2021/04/04 04:46:42;;;;;;;42.45;21.40;;;;;;;1.28;82.31;98455.52;1757907;80;21979;-72
2021/04/04 04:49:08;;;;;;;34.43;19.95;;;;;;;1.31;82.41;98452.42;1785175;80;21087;-72
2021/04/04 04:51:35;;;;;;;38.60;22.07;;;;;;;1.33;82.07;98462.37;1785146;79;21030;-73
2021/04/04 04:54:03;;;;;;;43.15;21.65;;;;;;;1.36;81.91;98453.11;1785179;80;21146;-73
2021/04/04 04:56:30;;;;;;;37.48;21.30;;;;;;;1.34;82.04;98460.00;1785337;79;21158;-73
2021/04/04 04:58:56;;;;;;;39.03;21.62;;;;;;;1.31;82.26;98456.42;1785171;80;21264;-73
2021/04/04 05:01:24;;;;;;;37.08;21.97;;;;;;;1.36;82.02;98462.45;1785147;79;21484;-73
2021/04/04 05:03:51;;;;;;;40.20;21.93;;;;;;;1.28;81.65;98458.67;1785278;80;21117;-73
2021/04/04 05:06:18;;;;;;;33.92;19.85;;;;;;;1.31;81.81;98463.09;1785154;79;21499;-73
2021/04/04 05:08:44;;;;;;;29.37;17.90;;;;;;;1.33;81.56;98460.21;1785170;80;21078;-73
2021/04/04 05:11:15;;;;;;;36.70;19.87;;;;;;;1.43;81.56;98463.77;1785032;79;21157;-73
2021/04/04 05:13:41;;;;;;;33.83;19.55;;;;;;;1.43;81.40;98467.27;1785092;80;21105;-73
2021/04/04 05:16:13;;;;;;;33.53;19.23;;;;;;;1.52;81.35;98464.66;1785079;79;21027;-73
2021/04/04 05:18:51;;;;;;;32.88;18.60;;;;;;;1.54;81.12;98472.46;1785121;80;21087;-73
2021/04/04 05:21:28;;;;;;;28.52;16.75;;;;;;;1.60;81.01;98468.95;1785113;79;21012;-72
2021/04/04 05:24:04;;;;;;;33.25;18.65;;;;;;;1.54;80.64;98473.31;1785187;80;21190;-73
2021/04/04 05:26:33;;;;;;;30.40;17.27;;;;;;;1.52;80.48;98469.19;1785019;79;21141;-73
2021/04/04 05:29:06;;;;;;;29.30;17.45;;;;;;;1.58;80.44;98475.85;1785121;80;21082;-73
2021/04/04 05:31:32;;;;;;;35.88;18.42;;;;;;;1.74;80.27;98476.42;1785019;79;21130;-73
2021/04/04 05:34:00;;;;;;;39.13;18.32;;;;;;;1.80;80.13;98469.72;1785245;80;21555;-74
2021/04/04 05:36:26;;;;;;;35.23;17.30;;;;;;;1.92;79.92;98471.20;1785040;79;21190;-73
2021/04/04 05:38:57;;;;;;;42.30;20.85;;;;;;;1.84;79.06;98475.45;1785104;80;21486;-73
2021/04/04 05:41:27;;;;;;;92.88;74.82;;;;;;;1.92;79.36;98473.34;1785046;79;21519;-73
2021/04/04 05:43:58;;;;;;;47.25;26.23;;;;;;;2.10;79.54;98476.65;1785178;80;21102;-73
2021/04/04 05:46:28;;;;;;;75.72;45.25;;;;;;;2.21;79.29;98476.48;1785345;79;21449;-73
2021/04/04 05:49:11;;;;;;;67.42;46.23;;;;;;;2.24;79.20;98480.90;1785315;80;21153;-74
2021/04/04 05:51:54;;;;;;;36.53;23.42;;;;;;;2.15;78.12;98479.52;1784569;79;21059;-73
2021/04/04 05:54:55;;;;;;;53.78;45.48;;;;;;;2.33;78.97;98480.12;1785277;80;21086;-74
2021/04/04 05:57:28;;;;;;;32.60;19.57;;;;;;;2.23;78.52;98483.80;1785249;80;21114;-73
2021/04/04 05:59:58;;;;;;;37.93;25.45;;;;;;;2.06;78.77;98479.98;1785406;79;21074;-73
2021/04/04 06:02:48;;;;;;;60.75;50.03;;;;;;;2.07;78.53;98486.97;1785267;80;21286;-73
2021/04/04 06:05:56;;;;;;;39.27;27.07;;;;;;;1.82;78.87;98490.88;1785250;79;21090;-72
2021/04/04 06:08:52;;;;;;;42.88;30.37;;;;;;;1.95;79.20;98493.48;1785501;80;25706;-73
2021/04/04 06:11:58;;;;;;;41.10;27.60;;;;;;;1.86;78.98;98501.44;1785197;79;21118;-73
2021/04/04 06:14:47;;;;;;;43.17;27.17;;;;;;;1.80;79.42;98501.78;1785020;80;21098;-72
2021/04/04 06:17:21;;;;;;;38.55;23.45;;;;;;;1.87;79.37;98511.09;1785417;80;22102;-73
2021/04/04 06:20:18;;;;;;;42.38;25.90;;;;;;;1.91;79.05;98506.98;1784963;79;21083;-73
2021/04/04 06:23:13;;;;;;;46.08;34.33;;;;;;;1.99;79.01;98513.42;1785008;80;21111;-74
2021/04/04 06:25:51;;;;;;;44.05;26.90;;;;;;;2.03;78.14;98511.95;1761638;80;21137;-73
2021/04/04 06:28:53;;;;;;;40.52;25.23;;;;;;;2.16;77.88;98507.89;1785387;80;21078;-73
2021/04/04 06:31:35;;;;;;;67.05;38.25;;;;;;;2.28;77.96;98513.37;1785243;79;22034;-73
2021/04/04 06:34:10;;;;;;;64.40;49.30;;;;;;;2.31;77.06;98516.13;1785105;80;21137;-73
2021/04/04 06:36:45;;;;;;;39.18;24.27;;;;;;;2.44;76.45;98514.72;1785243;79;21016;-73
2021/04/04 06:39:38;;;;;;;39.48;26.30;;;;;;;2.47;76.00;98507.07;1777136;80;21126;-74
2021/04/04 06:42:10;;;;;;;33.28;18.73;;;;;;;2.47;75.45;98509.74;1785224;80;21102;-73
2021/04/04 06:45:12;;;;;;;33.13;21.27;;;;;;;2.69;75.87;98506.73;1785330;80;21187;-73
2021/04/04 06:48:07;;;;;;;36.65;27.13;;;;;;;2.81;75.79;98500.45;1785240;80;21440;-72
2021/04/04 06:50:38;;;;;;;35.90;24.72;;;;;;;2.64;74.29;98506.55;1785261;79;21086;-72
2021/04/04 06:53:30;;;;;;;32.73;19.50;;;;;;;2.55;74.35;98505.47;1785224;80;21499;-73
2021/04/04 06:56:24;;;;;;;42.58;24.15;;;;;;;2.57;74.70;98504.47;1785209;79;21158;-73
2021/04/04 06:59:15;;;;;;;60.52;35.88;;;;;;;2.53;75.07;98510.23;1784340;80;22065;-74
2021/04/04 07:02:11;;;;;;;33.73;20.60;;;;;;;2.58;75.04;98508.25;1785132;79;21092;-73
2021/04/04 07:04:55;;;;;;;40.48;22.85;;;;;;;2.44;74.52;98511.52;1785266;80;21071;-73
2021/04/04 07:08:01;;;;;;;33.33;20.65;;;;;;;2.39;74.40;98506.50;1785255;80;21122;-73
2021/04/04 07:11:01;;;;;;;47.90;27.37;;;;;;;2.46;73.78;98510.78;1785236;79;21027;-73
2021/04/04 07:14:02;;;;;;;47.48;33.13;;;;;;;3.13;72.45;98505.75;1785287;80;21963;-74
2021/04/04 07:17:05;;;;;;;32.58;19.62;;;;;;;3.53;72.49;98504.03;1785069;79;21050;-73
2021/04/04 07:19:49;;;;;;;28.87;21.37;;;;;;;3.60;72.24;98507.47;1785152;80;21118;-73
2021/04/04 07:22:38;;;;;;;28.90;18.23;;;;;;;4.17;70.87;98507.47;1785189;80;21067;-73
2021/04/04 07:25:25;;;;;;;29.15;19.42;;;;;;;5.00;65.51;98502.64;1784715;79;21019;-73
2021/04/04 07:28:36;;;;;;;26.77;19.42;;;;;;;5.70;65.88;98495.09;1785287;80;21198;-73
2021/04/04 07:31:14;;;;;;;26.70;19.02;;;;;;;6.46;61.33;98502.02;1785116;79;21091;-72
2021/04/04 07:34:19;;;;;;;26.15;20.57;;;;;;;7.28;59.88;98494.78;1785583;80;21495;-74
2021/04/04 07:37:21;;;;;;;25.60;18.12;;;;;;;8.68;61.96;98500.58;1785196;79;21418;-73
2021/04/04 07:40:10;;;;;;;24.65;19.52;;;;;;;7.80;55.90;98501.70;1785243;79;21464;-73
2021/04/04 07:42:48;;;;;;;24.70;16.60;;;;;;;6.81;56.23;98517.17;1785237;80;21110;-73
2021/04/04 07:45:46;;;;;;;21.42;15.63;;;;;;;6.12;59.75;98516.42;1784868;79;21503;-73
2021/04/04 07:48:29;;;;;;;18.95;12.58;;;;;;;5.85;62.04;98514.77;1785302;80;21143;-73
2021/04/04 07:51:16;;;;;;;16.37;13.55;;;;;;;6.52;57.83;98522.31;1784819;79;21046;-74
2021/04/04 07:54:06;;;;;;;26.55;19.50;;;;;;;9.02;56.97;98517.91;1784326;80;21130;-74
2021/04/04 07:57:09;;;;;;;111.83;82.42;;;;;;;9.02;56.97;98517.91;1785135;79;21253;-74
2021/04/04 07:59:44;;;;;;;34.20;26.27;;;;;;;9.39;53.91;98523.88;1785275;80;21103;-73
2021/04/04 08:02:20;;;;;;;20.68;16.40;;;;;;;8.39;51.06;98524.33;1785154;80;21547;-73
2021/04/04 08:04:58;;;;;;;18.20;12.78;;;;;;;7.78;53.92;98520.84;1785278;79;21495;-73
2021/04/04 08:07:31;;;;;;;21.77;12.80;;;;;;;6.91;54.19;98528.11;1785215;80;21476;-73
2021/04/04 08:10:07;;;;;;;16.35;12.55;;;;;;;6.44;54.99;98520.82;1784865;79;22045;-73
2021/04/04 08:12:51;;;;;;;17.20;11.35;;;;;;;5.80;55.54;98518.68;1785153;80;21130;-74
2021/04/04 08:15:41;;;;;;;18.90;11.50;;;;;;;5.66;57.99;98524.86;1785174;79;21105;-72
2021/04/04 08:18:07;;;;;;;19.75;11.55;;;;;;;5.26;59.53;98520.19;1785106;80;21027;-73
2021/04/04 08:20:45;;;;;;;15.23;10.10;;;;;;;4.90;60.45;98528.44;1785266;79;21078;-73
2021/04/04 08:23:25;;;;;;;26.45;13.55;;;;;;;4.47;61.29;98525.46;1783949;80;21399;-72
2021/04/04 08:26:00;;;;;;;20.50;11.65;;;;;;;4.42;61.64;98526.66;1785208;79;21087;-73
2021/04/04 08:28:34;;;;;;;63.65;42.75;;;;;;;4.08;60.12;98531.63;1785133;80;21127;-73
2021/04/04 08:31:18;;;;;;;24.37;13.83;;;;;;;4.04;61.03;98526.95;1785152;79;21126;-73
2021/04/04 08:33:49;;;;;;;22.45;13.20;;;;;;;4.12;61.25;98530.67;1785185;80;21079;-74
2021/04/04 08:36:19;;;;;;;16.97;9.83;;;;;;;5.36;60.60;98527.13;1784551;79;21207;-71
2021/04/04 08:38:46;;;;;;;45.10;40.70;;;;;;;8.10;53.92;98518.80;1785178;80;21086;-73
2021/04/04 08:41:13;;;;;;;66.42;52.90;;;;;;;9.75;50.66;98524.94;1785155;79;21082;-72
2021/04/04 08:43:46;;;;;;;133.30;99.50;;;;;;;10.05;48.05;98531.04;1756820;80;21542;-73
2021/04/04 08:46:29;;;;;;;282.05;164.40;;;;;;;7.78;51.02;98537.03;1785271;79;21452;-73
2021/04/04 08:48:55;;;;;;;170.80;102.87;;;;;;;6.22;54.07;98548.38;1785185;80;21457;-73
2021/04/04 08:51:25;;;;;;;181.93;111.22;;;;;;;6.22;54.07;98548.38;1785135;79;21479;-72
2021/04/04 08:53:51;;;;;;;76.72;58.87;;;;;;;5.67;56.45;98539.94;1785158;80;21451;-73
2021/04/04 08:56:17;;;;;;;24.23;21.62;;;;;;;5.10;57.15;98540.49;1756623;80;21115;-73
2021/04/04 08:58:48;;;;;;;24.20;20.77;;;;;;;5.02;58.46;98537.33;1785147;80;21138;-73
2021/04/04 09:01:37;;;;;;;14.03;11.38;;;;;;;5.09;58.53;98536.17;1785122;79;21192;-73
2021/04/04 09:04:08;;;;;;;25.17;20.10;;;;;;;5.37;58.59;98534.67;1785100;80;21123;-73
2021/04/04 09:06:43;;;;;;;11.63;9.63;;;;;;;5.84;57.10;98526.58;1785162;79;21495;-72
2021/04/04 09:09:26;;;;;;;14.38;9.40;;;;;;;8.05;50.43;98520.11;1785167;80;21488;-72
2021/04/04 09:11:54;;;;;;;27.58;21.07;;;;;;;9.71;47.73;98511.64;1785166;79;21079;-73
2021/04/04 09:14:22;;;;;;;17.77;10.08;;;;;;;11.62;43.08;98512.86;1785126;80;21191;-73
2021/04/04 09:16:55;;;;;;;15.90;11.63;;;;;;;10.89;42.51;98513.71;1785147;79;21051;-73
2021/04/04 09:19:31;;;;;;;10.88;7.55;;;;;;;10.24;46.06;98507.86;1785131;80;21510;-73
2021/04/04 09:22:02;;;;;;;21.60;13.58;;;;;;;8.67;47.67;98513.81;1784678;79;21441;-73
2021/04/04 09:24:28;;;;;;;11.88;7.72;;;;;;;7.99;48.41;98512.47;1785089;80;21484;-73
2021/04/04 09:26:54;;;;;;;15.53;8.75;;;;;;;7.82;48.51;98513.06;1785068;79;22069;-73
2021/04/04 09:29:22;;;;;;;25.75;11.70;;;;;;;7.87;50.28;98507.73;1785063;80;21105;-73
2021/04/04 09:31:52;;;;;;;10.70;5.05;;;;;;;7.15;50.68;98515.31;1785029;79;21035;-73
2021/04/04 09:34:18;;;;;;;14.05;6.72;;;;;;;7.21;51.20;98506.79;1785102;80;21071;-73
2021/04/04 09:36:52;;;;;;;11.57;5.92;;;;;;;6.99;50.27;98516.94;1785103;79;21031;-73
2021/04/04 09:39:21;;;;;;;12.95;6.85;;;;;;;6.96;52.39;98507.19;1785094;80;21256;-72
2021/04/04 09:41:47;;;;;;;10.88;5.53;;;;;;;6.25;53.00;98515.34;1785070;79;21043;-73
2021/04/04 09:44:13;;;;;;;23.98;14.13;;;;;;;6.36;53.95;98511.78;1756580;80;21118;-74
2021/04/04 09:46:53;;;;;;;11.18;6.47;;;;;;;6.42;53.93;98515.68;1785158;79;21503;-73
2021/04/04 09:49:41;;;;;;;;;;;;;;;6.20;55.04;98512.02;1787749;80;21074;-73
2021/04/04 09:52:27;;;;;;;10.75;4.60;;;;;;;5.97;52.91;98504.81;1714902;80;22129;-73
2021/04/04 09:54:58;;;;;;;6.10;4.37;;;;;;;6.21;51.86;98504.22;1785156;79;21467;-73
2021/04/04 09:57:25;;;;;;;8.33;4.50;;;;;;;6.47;53.45;98500.14;1785186;80;21040;-72
2021/04/04 09:59:51;;;;;;;9.13;5.42;;;;;;;6.72;53.91;98503.81;1785121;79;21106;-72
2021/04/04 10:02:32;;;;;;;9.80;4.40;;;;;;;6.75;49.96;98500.13;1785139;80;21015;-72
2021/04/04 10:04:58;;;;;;;8.80;4.65;;;;;;;6.69;50.00;98494.89;1784720;79;21603;-74
2021/04/04 10:07:31;;;;;;;8.05;3.98;;;;;;;6.98;51.76;98490.24;1785039;80;21074;-74
2021/04/04 10:09:59;;;;;;;5.35;3.55;;;;;;;6.72;46.68;98493.86;1785189;79;21712;-73
2021/04/04 10:12:25;;;;;;;8.98;5.28;;;;;;;6.72;49.84;98498.43;1785125;80;21177;-73
2021/04/04 10:15:06;;;;;;;8.43;4.25;;;;;;;6.84;49.97;98495.69;1785235;79;21109;-73
2021/04/04 10:17:36;;;;;;;13.72;6.20;;;;;;;6.90;50.07;98496.85;1783064;80;21178;-73
2021/04/04 10:20:05;;;;;;;9.78;4.35;;;;;;;7.21;49.01;98493.31;1757079;79;21082;-72
2021/04/04 10:22:50;;;;;;;50.03;20.25;;;;;;;7.19;48.29;98492.22;1780676;80;21106;-74
2021/04/04 10:25:17;;;;;;;8.73;4.58;;;;;;;7.61;49.25;98495.80;1762072;81;21056;-73
2021/04/04 10:27:43;;;;;;;8.63;4.22;;;;;;;7.12;47.17;98502.88;1780714;80;21106;-73
2021/04/04 10:30:18;;;;;;;22.35;8.38;;;;;;;6.60;49.11;98498.51;1731831;81;21250;-73
2021/04/04 10:32:47;;;;;;;9.75;5.12;;;;;;;6.20;49.92;98507.97;1780711;80;21404;-73
2021/04/04 10:35:29;;;;;;;69.07;33.60;;;;;;;5.64;52.39;98501.43;1762208;81;21124;-72
2021/04/04 10:38:07;;;;;;;15.40;7.95;;;;;;;5.33;55.06;98512.02;1779859;80;21099;-73
2021/04/04 10:40:56;;;;;;;20.88;11.05;;;;;;;4.93;57.84;98509.98;1780832;79;21090;-72
2021/04/04 10:43:38;;;;;;;19.50;8.00;;;;;;;4.79;60.78;98512.08;1780787;80;21500;-74
2021/04/04 10:46:12;;;;;;;17.57;7.90;;;;;;;4.46;61.22;98505.05;1780757;79;21012;-73
2021/04/04 10:48:44;;;;;;;15.72;6.08;;;;;;;4.52;60.16;98502.23;1780807;80;21130;-73
2021/04/04 10:51:12;;;;;;;12.47;4.22;;;;;;;4.38;59.28;98506.70;1780800;79;21134;-73
2021/04/04 10:53:38;;;;;;;16.00;4.37;;;;;;;4.46;58.56;98493.78;1780914;80;21043;-74
2021/04/04 10:56:05;;;;;;;6.60;3.83;;;;;;;4.33;57.89;98493.14;1780891;79;21492;-74
2021/04/04 10:58:32;;;;;;;14.63;7.42;;;;;;;4.56;57.35;98489.72;1762226;81;21108;-73
2021/04/04 11:01:00;;;;;;;14.73;6.40;;;;;;;4.83;57.68;98491.47;1780859;79;21145;-74
2021/04/04 11:03:27;;;;;;;18.20;9.58;;;;;;;5.03;56.56;98487.39;1762267;81;21112;-73
2021/04/04 11:05:53;;;;;;;17.57;8.58;;;;;;;5.43;55.97;98481.86;1731967;81;21107;-74
2021/04/04 11:08:20;;;;;;;15.95;9.78;;;;;;;5.57;56.01;98479.22;1780734;80;21429;-73
2021/04/04 11:10:47;;;;;;;20.12;9.05;;;;;;;5.84;56.21;98482.20;1762152;81;21032;-74
2021/04/04 11:13:17;;;;;;;17.80;7.75;;;;;;;6.12;56.11;98476.06;1780734;80;21098;-74
2021/04/04 11:15:54;;;;;;;20.70;10.40;;;;;;;6.32;54.65;98473.75;1762182;81;21092;-73
2021/04/04 11:18:28;;;;;;;14.70;7.85;;;;;;;6.58;55.09;98469.66;1780705;80;21138;-74
2021/04/04 11:21:01;;;;;;;20.97;8.30;;;;;;;6.83;54.83;98455.78;1780809;79;22106;-73
2021/04/04 11:23:27;;;;;;;10.05;5.75;;;;;;;6.89;54.49;98459.38;1780746;80;21035;-74
2021/04/04 11:25:54;;;;;;;15.00;8.05;;;;;;;6.83;54.43;98453.09;1780830;79;21489;-74
2021/04/04 11:28:22;;;;;;;13.30;6.97;;;;;;;6.78;54.77;98456.53;1762188;81;21168;-74
2021/04/04 11:30:49;;;;;;;8.68;5.65;;;;;;;6.24;55.73;98463.39;1781015;79;21035;-74
2021/04/04 11:33:25;;;;;;;12.03;6.78;;;;;;;6.08;55.93;98469.54;1762122;81;21260;-74
2021/04/04 11:36:08;;;;;;;9.98;5.33;;;;;;;5.94;57.28;98462.27;1780688;79;21109;-72
2021/04/04 11:38:42;;;;;;;9.25;4.70;;;;;;;6.03;56.62;98460.02;1762177;81;21101;-74
2021/04/04 11:41:11;;;;;;;9.95;5.25;;;;;;;6.05;56.65;98454.67;1780760;79;21031;-74
2021/04/04 11:43:37;;;;;;;6.78;4.20;;;;;;;6.10;54.86;98451.28;1762242;81;21084;-74
2021/04/04 11:46:04;;;;;;;13.62;5.17;;;;;;;6.42;55.88;98452.95;1780691;79;21267;-74
2021/04/04 11:48:36;;;;;;;8.43;4.45;;;;;;;6.21;54.64;98451.22;1736258;81;21171;-74
2021/04/04 11:51:17;;;;;;;9.68;4.62;;;;;;;5.83;53.73;98450.99;1749965;81;21138;-73
2021/04/04 11:53:44;;;;;;;11.73;5.53;;;;;;;5.94;53.84;98438.05;1777061;80;21112;-73
2021/04/04 11:56:43;;;;;;;15.30;6.47;;;;;;;6.17;55.06;98432.59;1780753;79;21567;-73